sensor_id;sensor_type;location;lat;lon;timestamp;temperature;humidity
19192;DHT22;9728;48.194;16.346;2022-07-31T00:04:15;26.90;44.10
19192;DHT22;9728;48.194;16.346;2022-07-31T00:09:18;26.90;44.00
19192;DHT22;9728;48.194;16.346;2022-07-31T00:14:42;26.90;43.90
19192;DHT22;9728;48.194;16.346;2022-07-31T00:19:47;26.90;44.00
19192;DHT22;9728;48.194;16.346;2022-07-31T00:24:50;26.90;44.10
19192;DHT22;9728;48.194;16.346;2022-07-31T00:29:54;26.80;43.80
19192;DHT22;9728;48.194;16.346;2022-07-31T00:34:58;26.70;43.80
19192;DHT22;9728;48.194;16.346;2022-07-31T00:40:04;26.70;43.90
19192;DHT22;9728;48.194;16.346;2022-07-31T00:45:08;26.60;43.90
19192;DHT22;9728;48.194;16.346;2022-07-31T00:50:16;26.60;44.00
19192;DHT22;9728;48.194;16.346;2022-07-31T00:55:19;26.60;44.10
19192;DHT22;9728;48.194;16.346;2022-07-31T01:00:23;26.50;44.10
19192;DHT22;9728;48.194;16.346;2022-07-31T01:05:28;26.60;44.00
19192;DHT22;9728;48.194;16.346;2022-07-31T01:10:41;26.60;43.90
19192;DHT22;9728;48.194;16.346;2022-07-31T01:15:46;26.70;44.00
19192;DHT22;9728;48.194;16.346;2022-07-31T01:20:52;26.60;43.90
19192;DHT22;9728;48.194;16.346;2022-07-31T01:26:04;26.70;43.90
19192;DHT22;9728;48.194;16.346;2022-07-31T01:31:33;26.60;44.50
19192;DHT22;9728;48.194;16.346;2022-07-31T01:36:43;26.60;44.00
19192;DHT22;9728;48.194;16.346;2022-07-31T01:41:51;26.60;43.90
19192;DHT22;9728;48.194;16.346;2022-07-31T01:46:57;26.50;43.80
19192;DHT22;9728;48.194;16.346;2022-07-31T01:52:02;26.50;43.90
19192;DHT22;9728;48.194;16.346;2022-07-31T01:57:08;26.50;44.00
19192;DHT22;9728;48.194;16.346;2022-07-31T02:02:21;26.50;44.10
19192;DHT22;9728;48.194;16.346;2022-07-31T02:07:27;26.40;44.00
19192;DHT22;9728;48.194;16.346;2022-07-31T02:12:32;26.50;44.00
19192;DHT22;9728;48.194;16.346;2022-07-31T02:17:38;26.50;43.70
19192;DHT22;9728;48.194;16.346;2022-07-31T02:23:05;26.50;43.90
19192;DHT22;9728;48.194;16.346;2022-07-31T02:28:10;26.50;43.80
19192;DHT22;9728;48.194;16.346;2022-07-31T02:33:19;26.50;43.80
19192;DHT22;9728;48.194;16.346;2022-07-31T02:38:25;26.50;43.80
19192;DHT22;9728;48.194;16.346;2022-07-31T02:43:32;26.40;43.70
19192;DHT22;9728;48.194;16.346;2022-07-31T02:48:57;26.40;43.70
19192;DHT22;9728;48.194;16.346;2022-07-31T02:54:03;26.30;43.70
19192;DHT22;9728;48.194;16.346;2022-07-31T02:59:07;26.30;43.80
19192;DHT22;9728;48.194;16.346;2022-07-31T03:04:32;26.30;43.80
19192;DHT22;9728;48.194;16.346;2022-07-31T03:09:36;26.20;43.80
19192;DHT22;9728;48.194;16.346;2022-07-31T03:14:59;26.20;43.90
19192;DHT22;9728;48.194;16.346;2022-07-31T03:20:07;26.20;43.90
19192;DHT22;9728;48.194;16.346;2022-07-31T03:25:11;26.10;44.00
19192;DHT22;9728;48.194;16.346;2022-07-31T03:30:23;26.10;44.00
19192;DHT22;9728;48.194;16.346;2022-07-31T03:35:31;26.10;44.20
19192;DHT22;9728;48.194;16.346;2022-07-31T03:40:43;26.10;44.10
19192;DHT22;9728;48.194;16.346;2022-07-31T03:45:48;26.20;44.20
19192;DHT22;9728;48.194;16.346;2022-07-31T03:50:54;26.20;44.10
19192;DHT22;9728;48.194;16.346;2022-07-31T03:55:59;26.30;44.10
19192;DHT22;9728;48.194;16.346;2022-07-31T04:01:04;26.20;43.90
19192;DHT22;9728;48.194;16.346;2022-07-31T04:06:14;26.20;43.90
19192;DHT22;9728;48.194;16.346;2022-07-31T04:11:18;26.20;44.10
19192;DHT22;9728;48.194;16.346;2022-07-31T04:16:21;26.10;44.10
19192;DHT22;9728;48.194;16.346;2022-07-31T04:21:26;26.10;44.10
19192;DHT22;9728;48.194;16.346;2022-07-31T04:26:30;26.10;44.30
19192;DHT22;9728;48.194;16.346;2022-07-31T04:31:36;26.10;44.30
19192;DHT22;9728;48.194;16.346;2022-07-31T04:36:44;26.10;44.30
19192;DHT22;9728;48.194;16.346;2022-07-31T04:41:47;26.10;44.30
19192;DHT22;9728;48.194;16.346;2022-07-31T04:46:51;26.20;44.30
19192;DHT22;9728;48.194;16.346;2022-07-31T04:51:55;26.20;44.20
19192;DHT22;9728;48.194;16.346;2022-07-31T04:56:59;26.30;44.20
19192;DHT22;9728;48.194;16.346;2022-07-31T05:02:03;26.40;44.20
19192;DHT22;9728;48.194;16.346;2022-07-31T05:07:08;26.40;44.20
19192;DHT22;9728;48.194;16.346;2022-07-31T05:12:12;26.50;44.00
19192;DHT22;9728;48.194;16.346;2022-07-31T05:17:15;26.50;43.90
19192;DHT22;9728;48.194;16.346;2022-07-31T05:22:43;26.60;44.00
19192;DHT22;9728;48.194;16.346;2022-07-31T05:28:09;26.70;44.00
19192;DHT22;9728;48.194;16.346;2022-07-31T05:33:13;26.80;43.90
19192;DHT22;9728;48.194;16.346;2022-07-31T05:38:19;26.90;43.70
19192;DHT22;9728;48.194;16.346;2022-07-31T05:43:35;26.90;43.40
19192;DHT22;9728;48.194;16.346;2022-07-31T05:48:50;27.00;43.30
19192;DHT22;9728;48.194;16.346;2022-07-31T05:53:55;27.10;43.10
19192;DHT22;9728;48.194;16.346;2022-07-31T05:59:17;27.10;43.10
19192;DHT22;9728;48.194;16.346;2022-07-31T06:04:21;27.10;43.10
19192;DHT22;9728;48.194;16.346;2022-07-31T06:09:27;27.00;43.10
19192;DHT22;9728;48.194;16.346;2022-07-31T06:14:30;27.00;43.00
19192;DHT22;9728;48.194;16.346;2022-07-31T06:19:45;27.00;43.10
19192;DHT22;9728;48.194;16.346;2022-07-31T06:24:50;27.00;43.20
19192;DHT22;9728;48.194;16.346;2022-07-31T06:29:55;27.00;43.10
19192;DHT22;9728;48.194;16.346;2022-07-31T06:34:59;27.10;43.10
19192;DHT22;9728;48.194;16.346;2022-07-31T06:40:08;27.10;43.00
19192;DHT22;9728;48.194;16.346;2022-07-31T06:45:41;27.20;42.90
19192;DHT22;9728;48.194;16.346;2022-07-31T06:51:12;27.30;43.00
19192;DHT22;9728;48.194;16.346;2022-07-31T06:56:35;27.40;42.70
19192;DHT22;9728;48.194;16.346;2022-07-31T07:01:38;27.40;42.30
19192;DHT22;9728;48.194;16.346;2022-07-31T07:06:42;27.40;42.50
19192;DHT22;9728;48.194;16.346;2022-07-31T07:11:46;27.40;42.40
19192;DHT22;9728;48.194;16.346;2022-07-31T07:16:55;27.40;42.30
19192;DHT22;9728;48.194;16.346;2022-07-31T07:21:59;27.50;42.30
19192;DHT22;9728;48.194;16.346;2022-07-31T07:27:05;27.50;42.30
19192;DHT22;9728;48.194;16.346;2022-07-31T07:32:09;27.60;42.10
19192;DHT22;9728;48.194;16.346;2022-07-31T07:37:15;27.70;42.10
19192;DHT22;9728;48.194;16.346;2022-07-31T07:42:20;27.80;42.00
19192;DHT22;9728;48.194;16.346;2022-07-31T07:47:24;27.90;42.00
19192;DHT22;9728;48.194;16.346;2022-07-31T07:52:48;28.00;41.80
19192;DHT22;9728;48.194;16.346;2022-07-31T07:58:12;28.10;41.80
19192;DHT22;9728;48.194;16.346;2022-07-31T08:03:48;28.20;41.60
19192;DHT22;9728;48.194;16.346;2022-07-31T08:08:53;28.30;41.80
19192;DHT22;9728;48.194;16.346;2022-07-31T08:14:24;28.50;42.60
19192;DHT22;9728;48.194;16.346;2022-07-31T08:19:51;28.70;41.60
19192;DHT22;9728;48.194;16.346;2022-07-31T08:24:54;28.80;41.50
19192;DHT22;9728;48.194;16.346;2022-07-31T08:30:00;28.90;41.30
19192;DHT22;9728;48.194;16.346;2022-07-31T08:35:05;29.00;41.10
19192;DHT22;9728;48.194;16.346;2022-07-31T08:40:09;29.20;41.10
19192;DHT22;9728;48.194;16.346;2022-07-31T08:45:14;29.30;41.00
19192;DHT22;9728;48.194;16.346;2022-07-31T08:50:27;29.60;40.90
19192;DHT22;9728;48.194;16.346;2022-07-31T08:55:36;29.70;40.40
19192;DHT22;9728;48.194;16.346;2022-07-31T09:01:00;29.90;40.30
19192;DHT22;9728;48.194;16.346;2022-07-31T09:06:05;30.10;39.90
19192;DHT22;9728;48.194;16.346;2022-07-31T09:11:09;30.20;39.90
19192;DHT22;9728;48.194;16.346;2022-07-31T09:16:21;30.40;39.60
19192;DHT22;9728;48.194;16.346;2022-07-31T09:21:38;30.50;39.20
19192;DHT22;9728;48.194;16.346;2022-07-31T09:26:41;30.60;38.30
19192;DHT22;9728;48.194;16.346;2022-07-31T09:31:47;30.70;38.80
19192;DHT22;9728;48.194;16.346;2022-07-31T09:37:23;30.80;38.40
19192;DHT22;9728;48.194;16.346;2022-07-31T09:43:13;30.90;37.90
19192;DHT22;9728;48.194;16.346;2022-07-31T09:48:18;31.00;36.80
19192;DHT22;9728;48.194;16.346;2022-07-31T09:53:38;31.20;37.50
19192;DHT22;9728;48.194;16.346;2022-07-31T09:59:04;31.30;36.50
19192;DHT22;9728;48.194;16.346;2022-07-31T10:04:16;31.40;37.10
19192;DHT22;9728;48.194;16.346;2022-07-31T10:09:20;31.60;36.40
19192;DHT22;9728;48.194;16.346;2022-07-31T10:14:42;31.70;36.60
19192;DHT22;9728;48.194;16.346;2022-07-31T10:19:50;31.90;36.70
19192;DHT22;9728;48.194;16.346;2022-07-31T10:25:36;32.00;36.10
19192;DHT22;9728;48.194;16.346;2022-07-31T10:30:50;32.20;36.10
19192;DHT22;9728;48.194;16.346;2022-07-31T10:35:57;32.30;35.40
19192;DHT22;9728;48.194;16.346;2022-07-31T10:41:22;32.30;35.30
19192;DHT22;9728;48.194;16.346;2022-07-31T10:46:34;32.40;34.80
19192;DHT22;9728;48.194;16.346;2022-07-31T10:51:58;32.50;35.40
19192;DHT22;9728;48.194;16.346;2022-07-31T10:57:21;32.60;35.30
19192;DHT22;9728;48.194;16.346;2022-07-31T11:02:44;32.80;34.70
19192;DHT22;9728;48.194;16.346;2022-07-31T11:08:03;33.00;34.30
19192;DHT22;9728;48.194;16.346;2022-07-31T11:13:22;33.10;33.70
19192;DHT22;9728;48.194;16.346;2022-07-31T11:18:58;33.20;34.10
19192;DHT22;9728;48.194;16.346;2022-07-31T11:24:11;33.40;33.00
19192;DHT22;9728;48.194;16.346;2022-07-31T11:29:25;33.40;32.70
19192;DHT22;9728;48.194;16.346;2022-07-31T11:34:52;33.50;32.30
19192;DHT22;9728;48.194;16.346;2022-07-31T11:39:56;33.70;33.10
19192;DHT22;9728;48.194;16.346;2022-07-31T11:45:01;33.70;32.90
19192;DHT22;9728;48.194;16.346;2022-07-31T11:50:14;33.80;32.90
19192;DHT22;9728;48.194;16.346;2022-07-31T11:55:18;33.90;32.60
19192;DHT22;9728;48.194;16.346;2022-07-31T12:00:21;34.00;32.20
19192;DHT22;9728;48.194;16.346;2022-07-31T12:05:42;34.00;31.80
19192;DHT22;9728;48.194;16.346;2022-07-31T12:10:46;33.90;31.10
19192;DHT22;9728;48.194;16.346;2022-07-31T12:15:58;33.90;31.90
19192;DHT22;9728;48.194;16.346;2022-07-31T12:21:04;33.90;30.90
19192;DHT22;9728;48.194;16.346;2022-07-31T12:26:10;34.00;31.10
19192;DHT22;9728;48.194;16.346;2022-07-31T12:31:13;34.00;31.40
19192;DHT22;9728;48.194;16.346;2022-07-31T12:36:18;34.10;31.10
19192;DHT22;9728;48.194;16.346;2022-07-31T12:41:21;34.10;30.90
19192;DHT22;9728;48.194;16.346;2022-07-31T12:46:34;34.20;31.00
19192;DHT22;9728;48.194;16.346;2022-07-31T12:51:39;34.30;30.00
19192;DHT22;9728;48.194;16.346;2022-07-31T12:56:47;34.50;30.60
19192;DHT22;9728;48.194;16.346;2022-07-31T13:01:51;34.60;30.40
19192;DHT22;9728;48.194;16.346;2022-07-31T13:06:55;34.60;30.00
19192;DHT22;9728;48.194;16.346;2022-07-31T13:11:59;34.60;29.90
19192;DHT22;9728;48.194;16.346;2022-07-31T13:17:03;34.60;29.80
19192;DHT22;9728;48.194;16.346;2022-07-31T13:22:08;34.50;29.70
19192;DHT22;9728;48.194;16.346;2022-07-31T13:27:11;34.50;29.60
19192;DHT22;9728;48.194;16.346;2022-07-31T13:32:14;34.50;29.60
19192;DHT22;9728;48.194;16.346;2022-07-31T13:37:19;34.50;29.60
19192;DHT22;9728;48.194;16.346;2022-07-31T13:42:23;34.50;29.50
19192;DHT22;9728;48.194;16.346;2022-07-31T13:47:30;34.60;29.60
19192;DHT22;9728;48.194;16.346;2022-07-31T13:52:54;34.60;29.50
19192;DHT22;9728;48.194;16.346;2022-07-31T13:57:58;34.60;29.40
19192;DHT22;9728;48.194;16.346;2022-07-31T14:03:02;34.60;29.30
19192;DHT22;9728;48.194;16.346;2022-07-31T14:08:07;34.60;29.20
19192;DHT22;9728;48.194;16.346;2022-07-31T14:13:30;34.50;29.00
19192;DHT22;9728;48.194;16.346;2022-07-31T14:18:43;34.50;29.00
19192;DHT22;9728;48.194;16.346;2022-07-31T14:23:48;34.50;29.00
19192;DHT22;9728;48.194;16.346;2022-07-31T14:28:52;34.40;28.50
19192;DHT22;9728;48.194;16.346;2022-07-31T14:33:55;34.40;28.70
19192;DHT22;9728;48.194;16.346;2022-07-31T14:39:00;34.30;28.80
19192;DHT22;9728;48.194;16.346;2022-07-31T14:44:03;34.30;28.90
19192;DHT22;9728;48.194;16.346;2022-07-31T14:49:07;34.30;29.00
19192;DHT22;9728;48.194;16.346;2022-07-31T14:54:11;34.30;29.00
19192;DHT22;9728;48.194;16.346;2022-07-31T14:59:15;34.30;28.80
19192;DHT22;9728;48.194;16.346;2022-07-31T15:04:18;34.30;28.80
19192;DHT22;9728;48.194;16.346;2022-07-31T15:09:23;34.30;28.90
19192;DHT22;9728;48.194;16.346;2022-07-31T15:14:26;34.20;28.70
19192;DHT22;9728;48.194;16.346;2022-07-31T15:19:30;34.20;28.80
19192;DHT22;9728;48.194;16.346;2022-07-31T15:24:34;34.20;28.70
19192;DHT22;9728;48.194;16.346;2022-07-31T15:29:43;34.10;28.70
19192;DHT22;9728;48.194;16.346;2022-07-31T15:35:09;34.00;28.70
19192;DHT22;9728;48.194;16.346;2022-07-31T15:40:15;34.00;28.60
19192;DHT22;9728;48.194;16.346;2022-07-31T15:45:19;33.90;28.60
19192;DHT22;9728;48.194;16.346;2022-07-31T15:50:23;33.90;28.70
19192;DHT22;9728;48.194;16.346;2022-07-31T15:55:28;33.80;29.20
19192;DHT22;9728;48.194;16.346;2022-07-31T16:00:31;33.70;28.70
19192;DHT22;9728;48.194;16.346;2022-07-31T16:05:35;33.70;29.00
19192;DHT22;9728;48.194;16.346;2022-07-31T16:10:41;33.70;29.60
19192;DHT22;9728;48.194;16.346;2022-07-31T16:15:44;33.60;29.20
19192;DHT22;9728;48.194;16.346;2022-07-31T16:20:48;33.50;29.40
19192;DHT22;9728;48.194;16.346;2022-07-31T16:25:53;33.40;29.60
19192;DHT22;9728;48.194;16.346;2022-07-31T16:30:56;33.40;29.80
19192;DHT22;9728;48.194;16.346;2022-07-31T16:36:00;33.30;29.90
19192;DHT22;9728;48.194;16.346;2022-07-31T16:41:04;33.20;30.00
19192;DHT22;9728;48.194;16.346;2022-07-31T16:46:08;33.10;30.00
19192;DHT22;9728;48.194;16.346;2022-07-31T16:51:11;33.10;30.20
19192;DHT22;9728;48.194;16.346;2022-07-31T16:56:16;33.00;31.00
19192;DHT22;9728;48.194;16.346;2022-07-31T17:01:19;33.00;30.40
19192;DHT22;9728;48.194;16.346;2022-07-31T17:06:43;32.90;31.10
19192;DHT22;9728;48.194;16.346;2022-07-31T17:11:50;32.80;30.50
19192;DHT22;9728;48.194;16.346;2022-07-31T17:16:54;32.80;30.60
19192;DHT22;9728;48.194;16.346;2022-07-31T17:21:57;32.70;30.70
19192;DHT22;9728;48.194;16.346;2022-07-31T17:27:03;32.70;30.80
19192;DHT22;9728;48.194;16.346;2022-07-31T17:32:07;32.60;30.90
19192;DHT22;9728;48.194;16.346;2022-07-31T17:37:12;32.60;31.00
19192;DHT22;9728;48.194;16.346;2022-07-31T17:42:19;32.50;31.00
19192;DHT22;9728;48.194;16.346;2022-07-31T17:47:26;32.50;31.10
19192;DHT22;9728;48.194;16.346;2022-07-31T17:52:29;32.40;31.10
19192;DHT22;9728;48.194;16.346;2022-07-31T17:57:34;32.40;31.10
19192;DHT22;9728;48.194;16.346;2022-07-31T18:02:37;32.40;31.20
19192;DHT22;9728;48.194;16.346;2022-07-31T18:07:41;32.30;31.30
19192;DHT22;9728;48.194;16.346;2022-07-31T18:12:53;32.30;31.30
19192;DHT22;9728;48.194;16.346;2022-07-31T18:17:58;32.20;31.40
19192;DHT22;9728;48.194;16.346;2022-07-31T18:23:02;32.20;31.50
19192;DHT22;9728;48.194;16.346;2022-07-31T18:28:07;32.20;31.50
19192;DHT22;9728;48.194;16.346;2022-07-31T18:33:11;32.10;31.50
19192;DHT22;9728;48.194;16.346;2022-07-31T18:38:15;32.10;31.70
19192;DHT22;9728;48.194;16.346;2022-07-31T18:43:20;32.00;31.70
19192;DHT22;9728;48.194;16.346;2022-07-31T18:48:23;31.90;31.80
19192;DHT22;9728;48.194;16.346;2022-07-31T18:53:27;31.90;31.90
19192;DHT22;9728;48.194;16.346;2022-07-31T18:58:32;31.90;32.00
19192;DHT22;9728;48.194;16.346;2022-07-31T19:03:35;31.90;32.00
19192;DHT22;9728;48.194;16.346;2022-07-31T19:08:39;31.90;32.10
19192;DHT22;9728;48.194;16.346;2022-07-31T19:13:44;31.80;32.10
19192;DHT22;9728;48.194;16.346;2022-07-31T19:18:48;31.80;32.20
19192;DHT22;9728;48.194;16.346;2022-07-31T19:23:51;31.80;32.20
19192;DHT22;9728;48.194;16.346;2022-07-31T19:28:56;31.70;32.30
19192;DHT22;9728;48.194;16.346;2022-07-31T19:33:59;31.70;32.30
19192;DHT22;9728;48.194;16.346;2022-07-31T19:39:03;31.70;32.40
19192;DHT22;9728;48.194;16.346;2022-07-31T19:44:08;31.70;32.50
19192;DHT22;9728;48.194;16.346;2022-07-31T19:49:14;31.60;32.50
19192;DHT22;9728;48.194;16.346;2022-07-31T19:54:17;31.60;32.50
19192;DHT22;9728;48.194;16.346;2022-07-31T19:59:22;31.50;32.60
19192;DHT22;9728;48.194;16.346;2022-07-31T20:04:26;31.50;32.70
19192;DHT22;9728;48.194;16.346;2022-07-31T20:09:30;31.50;32.70
19192;DHT22;9728;48.194;16.346;2022-07-31T20:14:35;31.50;32.70
19192;DHT22;9728;48.194;16.346;2022-07-31T20:19:39;31.40;32.70
19192;DHT22;9728;48.194;16.346;2022-07-31T20:25:04;31.40;32.90
19192;DHT22;9728;48.194;16.346;2022-07-31T20:30:22;31.30;32.80
19192;DHT22;9728;48.194;16.346;2022-07-31T20:35:26;31.20;32.90
19192;DHT22;9728;48.194;16.346;2022-07-31T20:40:50;31.20;33.10
19192;DHT22;9728;48.194;16.346;2022-07-31T20:45:58;31.20;33.30
19192;DHT22;9728;48.194;16.346;2022-07-31T20:51:03;31.20;33.40
19192;DHT22;9728;48.194;16.346;2022-07-31T20:56:06;31.10;33.50
19192;DHT22;9728;48.194;16.346;2022-07-31T21:01:11;31.10;33.50
19192;DHT22;9728;48.194;16.346;2022-07-31T21:06:16;31.00;33.60
19192;DHT22;9728;48.194;16.346;2022-07-31T21:11:20;31.00;33.70
19192;DHT22;9728;48.194;16.346;2022-07-31T21:16:34;31.00;33.80
19192;DHT22;9728;48.194;16.346;2022-07-31T21:21:37;31.00;34.00
19192;DHT22;9728;48.194;16.346;2022-07-31T21:26:40;31.00;34.00
19192;DHT22;9728;48.194;16.346;2022-07-31T21:31:48;30.90;34.00
19192;DHT22;9728;48.194;16.346;2022-07-31T21:36:52;30.90;34.40
19192;DHT22;9728;48.194;16.346;2022-07-31T21:41:56;30.90;34.30
19192;DHT22;9728;48.194;16.346;2022-07-31T21:47:01;30.80;34.40
19192;DHT22;9728;48.194;16.346;2022-07-31T21:52:06;30.80;34.60
19192;DHT22;9728;48.194;16.346;2022-07-31T21:57:09;30.70;34.50
19192;DHT22;9728;48.194;16.346;2022-07-31T22:02:14;30.70;34.50
19192;DHT22;9728;48.194;16.346;2022-07-31T22:07:17;30.60;34.70
19192;DHT22;9728;48.194;16.346;2022-07-31T22:12:40;30.60;34.70
19192;DHT22;9728;48.194;16.346;2022-07-31T22:17:45;30.60;34.80
19192;DHT22;9728;48.194;16.346;2022-07-31T22:22:49;30.60;34.80
19192;DHT22;9728;48.194;16.346;2022-07-31T22:27:54;30.50;34.80
19192;DHT22;9728;48.194;16.346;2022-07-31T22:32:59;30.50;34.80
19192;DHT22;9728;48.194;16.346;2022-07-31T22:38:03;30.40;35.10
19192;DHT22;9728;48.194;16.346;2022-07-31T22:43:06;30.40;35.10
19192;DHT22;9728;48.194;16.346;2022-07-31T22:48:32;30.40;35.20
19192;DHT22;9728;48.194;16.346;2022-07-31T22:53:35;30.40;35.40
19192;DHT22;9728;48.194;16.346;2022-07-31T22:58:39;30.40;35.50
19192;DHT22;9728;48.194;16.346;2022-07-31T23:03:44;30.30;35.40
19192;DHT22;9728;48.194;16.346;2022-07-31T23:08:49;30.30;35.50
19192;DHT22;9728;48.194;16.346;2022-07-31T23:13:56;30.30;35.60
19192;DHT22;9728;48.194;16.346;2022-07-31T23:19:01;30.30;35.60
19192;DHT22;9728;48.194;16.346;2022-07-31T23:24:04;30.20;35.70
19192;DHT22;9728;48.194;16.346;2022-07-31T23:29:08;30.20;35.80
19192;DHT22;9728;48.194;16.346;2022-07-31T23:34:13;30.20;36.00
19192;DHT22;9728;48.194;16.346;2022-07-31T23:39:17;30.10;36.00
19192;DHT22;9728;48.194;16.346;2022-07-31T23:44:24;30.10;36.10
19192;DHT22;9728;48.194;16.346;2022-07-31T23:49:29;30.10;36.20
19192;DHT22;9728;48.194;16.346;2022-07-31T23:54:33;30.10;36.30
19192;DHT22;9728;48.194;16.346;2022-07-31T23:59:36;30.10;36.30
